SPZO

Details ICAO SPZO (CUZ)
Name Alejandro Velasco Astete Intl
Region Peru
Timezone America/Lima (UTC-5.0)
Plans Departing 457
Arriving 641
Stats Elevation 10,860 ft / 3,310 m (AMSL)
Location -13.535700° -71.938800°
Runways 1
Magnetic Variation 6.272° W
Sunrise 2021-10-24 10:17:58 UTC / 2021-10-24 05:17:58 Local
Sunset 2021-10-24 22:48:11 UTC / 2021-10-24 17:48:11 Local
Advertisement - Login to hide

Runways

ID Width Length Bearing (true/mag) Surface Threshold Overrun Markings Lighting
10 148 ft / 45 m 11,142 ft / 3,396 m 95.98° / 102.25° ASPHALT 0 ft / 0 m 190 ft / 58 m VISUAL CENTERLINE EDGE THRESHOLD
28 148 ft / 45 m 11,142 ft / 3,396 m 275.97° / 282.24° ASPHALT 0 ft / 0 m 190 ft / 58 m PREC-APP CENTERLINE EDGE THRESHOLD ALSF-I REIL-OMNI

Map

Weather


0- 5 10 15 20 25 30 35+ Temperature / °C

Clouds and Precipitation
Forecast for 2021-10-25 00:00 UTC. Updated an hour ago

Ground ~20,000 ft ~40,000 ft Winds

METAR

SPZO 242230Z 02013KT 350V100 9999 VCFU SCT050 BKN150 18/03 Q1027 NOSIG RMK VIS 9000 QUAD SE FU BIRD HAZARD RWY 28

TAF

TAF SPZO 241715Z 2418/2518 29005KT 9999 SCT050 TX26/2419Z TN07/2511Z TEMPO 2419/2422 RA FEW040TCU BKN080

Frequencies

Recorded 127.00 MHz ATIS
Tower 118.10 MHz Cusco Tower
Ground 121.90 MHz Cusco Ground
Approach 120.60 MHz Cusco Approach
Warning: Do not use this data for real-world aviation or navigation. No guarantee of current accuracy is given.